Time;durP1;ratioP1;P1;durP2;ratioP2;P2;SDS_P1;SDS_P2;PMS_P1;PMS_P2;Temp;Humidity;BMP_temperature;BMP_pressure;BME280_temperature;BME280_humidity;BME280_pressure;Samples;Min_cycle;Max_cycle;Signal;HPM_P1;HPM_P2
2023/06/18 00:00:15;;;;;;;2.47;1.33;;;23.20;49.70;;;;;;4958217;28;20105;-86
2023/06/18 00:02:43;;;;;;;3.60;1.60;;;23.20;49.70;;;;;;4966053;28;20085;-86
2023/06/18 00:05:10;;;;;;;3.53;1.83;;;23.20;49.80;;;;;;4963624;28;20046;-87
2023/06/18 00:07:37;;;;;;;3.33;1.75;;;23.20;49.90;;;;;;4973200;28;20045;-87
2023/06/18 00:10:05;;;;;;;2.92;1.67;;;23.10;49.90;;;;;;4973844;28;20043;-87
2023/06/18 00:12:32;;;;;;;3.15;1.67;;;23.10;50.00;;;;;;4981403;28;20047;-86
2023/06/18 00:14:59;;;;;;;3.25;1.63;;;23.10;50.10;;;;;;4983440;28;20043;-87
2023/06/18 00:17:26;;;;;;;2.88;1.45;;;23.10;50.20;;;;;;4968436;28;20423;-87
2023/06/18 00:19:53;;;;;;;2.38;1.45;;;23.00;50.30;;;;;;4981319;28;20069;-87
2023/06/18 00:22:21;;;;;;;3.25;1.77;;;23.00;50.30;;;;;;4975336;28;20046;-87
2023/06/18 00:24:48;;;;;;;2.47;1.63;;;22.90;50.40;;;;;;4960573;28;20053;-87
2023/06/18 00:27:16;;;;;;;2.58;1.15;;;22.90;50.50;;;;;;4969064;28;20545;-78
2023/06/18 00:29:47;;;;;;;2.42;1.20;;;22.90;50.50;;;;;;4972715;28;20054;-78
2023/06/18 00:32:15;;;;;;;3.35;1.65;;;22.80;50.50;;;;;;4963827;28;20141;-78
2023/06/18 00:34:42;;;;;;;3.20;1.52;;;22.80;50.60;;;;;;4977960;28;20061;-78
2023/06/18 00:37:10;;;;;;;3.08;1.50;;;22.80;50.60;;;;;;4968695;28;20158;-78
2023/06/18 00:39:38;;;;;;;3.05;1.63;;;22.80;50.60;;;;;;4971457;28;20058;-78
2023/06/18 00:42:07;;;;;;;3.28;1.33;;;22.80;50.70;;;;;;4989938;28;20053;-78
2023/06/18 00:44:39;;;;;;;2.75;1.67;;;22.80;50.70;;;;;;4977082;28;20047;-77
2023/06/18 00:47:12;;;;;;;2.85;1.55;;;22.70;50.70;;;;;;4978200;28;20195;-77
2023/06/18 00:49:41;;;;;;;2.95;1.55;;;22.70;50.70;;;;;;4977282;28;20038;-77
2023/06/18 00:52:15;;;;;;;2.28;1.30;;;22.70;50.70;;;;;;4970403;28;20050;-77
2023/06/18 00:54:44;;;;;;;3.75;1.63;;;22.70;50.80;;;;;;4996187;28;20046;-77
2023/06/18 00:57:15;;;;;;;3.03;1.35;;;22.70;51.00;;;;;;4986320;28;20052;-78
2023/06/18 00:59:42;;;;;;;2.42;1.35;;;22.70;51.00;;;;;;4993551;28;20065;-78
2023/06/18 01:02:10;;;;;;;2.50;1.48;;;22.60;50.90;;;;;;4967509;28;20042;-78
2023/06/18 01:04:38;;;;;;;2.85;1.45;;;22.60;51.00;;;;;;4995449;28;20055;-78
2023/06/18 01:07:13;;;;;;;3.92;1.50;;;22.50;51.10;;;;;;4968266;28;20050;-78
2023/06/18 01:09:45;;;;;;;2.72;1.58;;;22.50;51.20;;;;;;4964268;28;20049;-78
2023/06/18 01:12:13;;;;;;;2.78;1.35;;;22.40;51.20;;;;;;4984615;28;20044;-78
2023/06/18 01:14:50;;;;;;;2.72;1.58;;;22.40;51.30;;;;;;4992921;28;20491;-78
2023/06/18 01:17:20;;;;;;;3.47;1.30;;;22.30;51.30;;;;;;4984546;28;20136;-78
2023/06/18 01:20:08;;;;;;;2.50;1.20;;;22.30;51.50;;;;;;4995497;28;20405;-78
2023/06/18 01:23:02;;;;;;;2.03;1.15;;;22.30;51.50;;;;;;4980024;28;20117;-78
2023/06/18 01:25:34;;;;;;;3.17;1.25;;;22.20;51.50;;;;;;4969600;28;20520;-78
2023/06/18 01:28:07;;;;;;;2.70;1.33;;;22.20;51.70;;;;;;4996918;28;20042;-78
2023/06/18 01:30:39;;;;;;;2.97;1.42;;;22.10;51.70;;;;;;4973704;28;20042;-78
2023/06/18 01:33:12;;;;;;;3.13;1.40;;;22.10;51.70;;;;;;4976521;28;20042;-78
2023/06/18 01:35:39;;;;;;;2.33;1.02;;;22.10;51.80;;;;;;4976896;28;20050;-77
2023/06/18 01:38:24;;;;;;;2.25;1.17;;;22.00;51.80;;;;;;4980679;28;20145;-78
2023/06/18 01:41:00;;;;;;;2.80;1.27;;;22.00;51.80;;;;;;4992369;28;20050;-77
2023/06/18 01:43:30;;;;;;;4.03;1.50;;;22.00;51.90;;;;;;4980127;28;20364;-77
2023/06/18 01:46:02;;;;;;;2.53;1.30;;;21.90;52.00;;;;;;4971447;28;20054;-78
2023/06/18 01:48:35;;;;;;;2.78;1.05;;;21.90;52.10;;;;;;4991741;28;20043;-78
2023/06/18 01:51:05;;;;;;;2.78;1.17;;;21.80;52.10;;;;;;4994481;28;20133;-78
2023/06/18 01:53:34;;;;;;;3.10;1.60;;;21.80;52.80;;;;;;5001585;28;20049;-78
2023/06/18 01:56:02;;;;;;;2.03;1.02;;;21.80;52.30;;;;;;4963047;28;20046;-78
2023/06/18 01:58:33;;;;;;;2.47;1.10;;;21.70;52.30;;;;;;4992676;28;20528;-78
2023/06/18 02:01:00;;;;;;;2.95;1.42;;;21.70;52.30;;;;;;4975034;28;20053;-78
2023/06/18 02:03:28;;;;;;;2.35;1.20;;;21.70;52.40;;;;;;4985690;28;20057;-78
2023/06/18 02:05:55;;;;;;;2.20;1.13;;;21.60;52.40;;;;;;4977842;28;20073;-78
2023/06/18 02:08:22;;;;;;;2.63;1.33;;;21.60;52.50;;;;;;4983705;28;20042;-78
2023/06/18 02:10:50;;;;;;;3.65;1.00;;;21.60;52.70;;;;;;4980002;28;20062;-78
2023/06/18 02:13:18;;;;;;;3.05;1.10;;;21.50;52.70;;;;;;4969360;28;20046;-78
2023/06/18 02:15:45;;;;;;;2.58;1.25;;;21.40;53.40;;;;;;4975995;28;20050;-78
2023/06/18 02:18:12;;;;;;;2.22;1.08;;;21.40;52.90;;;;;;4977872;28;20137;-78
2023/06/18 02:20:40;;;;;;;2.20;1.20;;;21.30;53.00;;;;;;4964672;28;20050;-78
2023/06/18 02:23:08;;;;;;;3.25;1.20;;;21.30;53.20;;;;;;4987597;28;20149;-78
2023/06/18 02:25:35;;;;;;;2.97;1.20;;;21.20;53.20;;;;;;4998643;28;20042;-78
2023/06/18 02:28:03;;;;;;;2.83;1.58;;;21.20;53.30;;;;;;4964205;28;20093;-77
2023/06/18 02:30:30;;;;;;;2.40;1.20;;;21.20;53.40;;;;;;4988591;28;20042;-78
2023/06/18 02:32:59;;;;;;;2.00;1.27;;;21.10;53.50;;;;;;4978456;28;20685;-77
2023/06/18 02:35:26;;;;;;;2.05;1.27;;;21.10;53.60;;;;;;4992001;28;20046;-78
2023/06/18 02:37:54;;;;;;;2.63;0.98;;;21.00;53.70;;;;;;4973723;28;20384;-78
2023/06/18 02:40:25;;;;;;;3.92;1.13;;;21.00;53.80;;;;;;4958693;28;20157;-79
2023/06/18 02:42:52;;;;;;;2.30;1.42;;;21.00;53.90;;;;;;4956707;28;20066;-79
2023/06/18 02:45:21;;;;;;;2.17;0.90;;;20.90;53.90;;;;;;4967199;28;20558;-79
2023/06/18 02:47:50;;;;;;;2.63;1.40;;;20.90;54.00;;;;;;4991948;28;20058;-79
2023/06/18 02:50:18;;;;;;;2.67;1.08;;;20.90;54.10;;;;;;4975757;28;20422;-79
2023/06/18 02:52:46;;;;;;;3.85;1.63;;;20.80;54.20;;;;;;4972384;28;20067;-79
2023/06/18 02:55:14;;;;;;;2.47;1.30;;;20.80;54.30;;;;;;4952060;28;20133;-79
2023/06/18 02:57:42;;;;;;;3.20;1.60;;;20.80;54.40;;;;;;4956615;28;20110;-79
2023/06/18 03:00:13;;;;;;;3.00;1.40;;;20.70;54.50;;;;;;4988286;28;20050;-79
2023/06/18 03:02:44;;;;;;;2.92;1.50;;;20.70;54.70;;;;;;4982173;28;20050;-79
2023/06/18 03:05:20;;;;;;;2.75;1.30;;;20.70;54.90;;;;;;4965750;28;20055;-79
2023/06/18 03:07:50;;;;;;;2.13;1.00;;;20.60;54.90;;;;;;4972415;28;20070;-79
2023/06/18 03:10:18;;;;;;;2.67;1.48;;;20.50;55.00;;;;;;4968366;28;20557;-79
2023/06/18 03:12:49;;;;;;;2.95;1.30;;;20.50;55.20;;;;;;4965733;28;20047;-79
2023/06/18 03:15:29;;;;;;;2.22;1.15;;;20.40;55.40;;;;;;4982746;28;20059;-79
2023/06/18 03:17:56;;;;;;;2.60;1.30;;;20.40;55.60;;;;;;4953913;28;20078;-78
2023/06/18 03:20:23;;;;;;;1.90;1.00;;;20.30;55.80;;;;;;4977835;28;20035;-79
2023/06/18 03:22:55;;;;;;;2.42;1.40;;;20.20;55.80;;;;;;4958872;28;20054;-79
2023/06/18 03:25:22;;;;;;;3.40;1.50;;;20.20;56.10;;;;;;4974478;28;20042;-79
2023/06/18 03:27:53;;;;;;;2.72;1.45;;;20.10;56.10;;;;;;4997763;28;20045;-79
2023/06/18 03:30:23;;;;;;;2.88;1.15;;;20.10;56.30;;;;;;4988301;28;20057;-79
2023/06/18 03:32:52;;;;;;;3.15;1.63;;;20.10;56.40;;;;;;4976096;28;20109;-79
2023/06/18 03:35:21;;;;;;;3.03;1.60;;;20.00;56.50;;;;;;4954023;28;20479;-79
2023/06/18 03:37:48;;;;;;;2.70;1.58;;;20.10;56.70;;;;;;4990298;28;20042;-79
2023/06/18 03:40:16;;;;;;;2.80;1.40;;;20.00;56.60;;;;;;4980259;28;20051;-79
2023/06/18 03:42:43;;;;;;;3.15;1.77;;;20.10;56.70;;;;;;4963063;28;20142;-79
2023/06/18 03:45:14;;;;;;;2.00;1.02;;;20.00;56.70;;;;;;4965396;28;20043;-79
2023/06/18 03:47:42;;;;;;;2.95;1.20;;;20.00;56.80;;;;;;4982007;28;20586;-79
2023/06/18 03:50:09;;;;;;;3.70;1.90;;;20.10;56.90;;;;;;4974102;28;20034;-79
2023/06/18 03:52:37;;;;;;;3.45;1.63;;;20.10;56.90;;;;;;4964117;28;20043;-79
2023/06/18 03:55:05;;;;;;;2.80;1.42;;;20.10;56.90;;;;;;4979067;28;20141;-78
2023/06/18 03:57:32;;;;;;;2.83;1.67;;;20.10;56.90;;;;;;4991585;28;20076;-79
2023/06/18 03:59:59;;;;;;;2.85;1.42;;;20.20;56.90;;;;;;4981868;28;20498;-79
2023/06/18 04:02:26;;;;;;;3.75;1.75;;;20.20;57.00;;;;;;4982002;28;20077;-79
2023/06/18 04:04:54;;;;;;;3.22;1.70;;;20.20;57.00;;;;;;4962599;28;20058;-79
2023/06/18 04:07:21;;;;;;;2.97;1.30;;;20.20;57.00;;;;;;4987442;28;20038;-79
2023/06/18 04:09:49;;;;;;;2.78;1.90;;;20.20;57.00;;;;;;4993862;28;20054;-79
2023/06/18 04:12:16;;;;;;;3.72;2.13;;;20.20;57.00;;;;;;4981910;28;20050;-79
2023/06/18 04:14:44;;;;;;;3.40;1.42;;;20.30;57.10;;;;;;4978111;28;20042;-79
2023/06/18 04:17:11;;;;;;;2.80;1.60;;;20.30;57.10;;;;;;4991296;28;20069;-79
2023/06/18 04:19:39;;;;;;;3.08;1.48;;;20.30;57.00;;;;;;4965183;28;20499;-76
2023/06/18 04:22:07;;;;;;;4.65;2.05;;;20.40;57.00;;;;;;4975234;28;20062;-77
2023/06/18 04:24:37;;;;;;;3.45;1.90;;;20.40;57.00;;;;;;4971765;28;20043;-77
2023/06/18 04:27:05;;;;;;;3.67;1.98;;;20.50;57.00;;;;;;4965590;28;20097;-77
2023/06/18 04:29:34;;;;;;;4.25;2.35;;;20.50;57.00;;;;;;4975333;28;20101;-78
2023/06/18 04:32:02;;;;;;;3.80;1.95;;;20.50;56.90;;;;;;4958837;28;20396;-77
2023/06/18 04:34:29;;;;;;;2.33;1.73;;;20.60;56.90;;;;;;4997430;28;20042;-78
2023/06/18 04:36:56;;;;;;;3.38;1.80;;;20.70;56.70;;;;;;4973065;28;20105;-77
2023/06/18 04:39:23;;;;;;;3.47;2.22;;;20.80;56.70;;;;;;4976042;28;20038;-77
2023/06/18 04:41:50;;;;;;;4.63;1.85;;;20.80;56.70;;;;;;4977992;28;20046;-77
2023/06/18 04:44:18;;;;;;;3.72;2.05;;;20.80;56.80;;;;;;4994213;28;20049;-77
2023/06/18 04:46:47;;;;;;;3.78;1.75;;;20.80;56.80;;;;;;4967629;28;20415;-78
2023/06/18 04:49:15;;;;;;;4.28;2.33;;;20.90;56.80;;;;;;4960608;28;20133;-78
2023/06/18 04:51:44;;;;;;;3.92;1.90;;;20.90;56.80;;;;;;4957205;28;20047;-78
2023/06/18 04:54:14;;;;;;;3.05;1.90;;;20.90;56.80;;;;;;4995131;28;20051;-77
2023/06/18 04:56:41;;;;;;;3.15;1.90;;;21.00;56.80;;;;;;4964936;28;20480;-78
2023/06/18 04:59:08;;;;;;;3.05;1.83;;;21.00;56.70;;;;;;4976434;28;20051;-78
2023/06/18 05:01:37;;;;;;;3.72;2.03;;;21.10;56.70;;;;;;4973075;28;20141;-77
2023/06/18 05:04:05;;;;;;;3.55;1.98;;;21.10;56.80;;;;;;4948024;28;20496;-78
2023/06/18 05:06:32;;;;;;;3.40;2.30;;;21.10;56.70;;;;;;4974161;28;20097;-77
2023/06/18 05:09:00;;;;;;;3.67;2.13;;;21.10;56.70;;;;;;4955429;28;20073;-78
2023/06/18 05:11:27;;;;;;;3.33;1.70;;;21.20;56.80;;;;;;4977111;28;20136;-77
2023/06/18 05:13:54;;;;;;;6.65;2.58;;;21.20;56.80;;;;;;4983274;28;20052;-77
2023/06/18 05:16:22;;;;;;;3.58;2.00;;;21.20;56.80;;;;;;4966876;28;20049;-77
2023/06/18 05:18:49;;;;;;;3.35;2.10;;;21.20;56.90;;;;;;4973695;28;20534;-77
2023/06/18 05:21:21;;;;;;;3.83;2.30;;;21.20;57.00;;;;;;4989400;28;20049;-78
2023/06/18 05:23:49;;;;;;;3.33;2.03;;;21.20;57.10;;;;;;4980374;28;20470;-78
2023/06/18 05:26:16;;;;;;;4.00;2.40;;;21.20;57.10;;;;;;4964884;28;20077;-78
2023/06/18 05:28:45;;;;;;;4.35;2.47;;;21.20;57.20;;;;;;4966436;28;20492;-78
2023/06/18 05:31:12;;;;;;;4.72;2.45;;;21.20;57.30;;;;;;4971541;28;20042;-78
2023/06/18 05:33:40;;;;;;;4.82;2.50;;;21.20;57.30;;;;;;4960996;28;20493;-78
2023/06/18 05:36:07;;;;;;;3.47;2.30;;;21.20;57.30;;;;;;4964275;28;20057;-78
2023/06/18 05:38:34;;;;;;;3.53;1.95;;;21.20;57.30;;;;;;4958300;28;20097;-77
2023/06/18 05:41:02;;;;;;;3.80;2.42;;;21.20;57.30;;;;;;4965733;28;20050;-78
2023/06/18 05:43:29;;;;;;;3.55;2.13;;;21.30;57.30;;;;;;4981429;28;20112;-78
2023/06/18 05:45:57;;;;;;;6.18;2.65;;;21.40;57.30;;;;;;4956029;28;20473;-78
2023/06/18 05:48:25;;;;;;;3.88;2.58;;;21.50;57.20;;;;;;4990959;28;20044;-77
2023/06/18 05:51:02;;;;;;;3.83;2.40;;;21.50;57.10;;;;;;4993108;28;20042;-78
2023/06/18 05:53:29;;;;;;;3.85;2.17;;;21.50;57.10;;;;;;4976483;28;20081;-78
2023/06/18 05:55:56;;;;;;;3.83;2.30;;;21.60;57.10;;;;;;4974218;28;20055;-78
2023/06/18 05:58:24;;;;;;;3.63;2.33;;;21.70;57.00;;;;;;4962526;28;20453;-78
2023/06/18 06:00:52;;;;;;;4.18;2.63;;;21.80;56.90;;;;;;4976368;28;20140;-78
2023/06/18 06:03:19;;;;;;;4.00;2.40;;;21.90;56.90;;;;;;4974728;28;20054;-78
2023/06/18 06:05:46;;;;;;;4.53;2.63;;;22.00;57.40;;;;;;4965316;28;20081;-78
2023/06/18 06:08:13;;;;;;;4.95;2.67;;;22.10;56.60;;;;;;4964236;28;20078;-78
2023/06/18 06:10:45;;;;;;;3.23;2.13;;;22.30;56.50;;;;;;4948248;28;20097;-78
2023/06/18 06:13:12;;;;;;;4.15;2.92;;;22.40;56.30;;;;;;4992002;28;20351;-78
2023/06/18 06:15:41;;;;;;;4.68;2.70;;;22.40;56.20;;;;;;4960691;28;20491;-78
2023/06/18 06:18:08;;;;;;;4.43;2.97;;;22.50;56.20;;;;;;4975407;28;20081;-78
2023/06/18 06:20:35;;;;;;;4.82;3.50;;;22.60;56.10;;;;;;4960085;28;20509;-78
2023/06/18 06:23:02;;;;;;;4.70;2.80;;;22.70;56.00;;;;;;4992685;28;20046;-79
2023/06/18 06:25:30;;;;;;;5.07;3.10;;;22.80;55.80;;;;;;4991967;28;20050;-78
2023/06/18 06:27:58;;;;;;;5.25;2.80;;;22.90;55.70;;;;;;4978085;28;20084;-78
2023/06/18 06:30:25;;;;;;;4.78;3.08;;;22.90;55.60;;;;;;4991963;28;20042;-78
2023/06/18 06:32:59;;;;;;;4.03;2.72;;;23.00;55.70;;;;;;4974984;28;20049;-78
2023/06/18 06:35:28;;;;;;;3.80;2.58;;;23.00;55.60;;;;;;4960381;28;20043;-78
2023/06/18 06:37:57;;;;;;;3.50;2.70;;;23.10;55.50;;;;;;4965377;28;20133;-78
2023/06/18 06:40:24;;;;;;;4.32;2.72;;;23.20;55.30;;;;;;4986711;28;20053;-78
2023/06/18 06:42:52;;;;;;;4.88;2.70;;;23.40;55.10;;;;;;4982064;28;20045;-79
2023/06/18 06:45:27;;;;;;;4.75;2.92;;;23.50;54.90;;;;;;4981029;28;20092;-78
2023/06/18 06:48:02;;;;;;;4.93;3.03;;;23.70;54.70;;;;;;4995199;28;20046;-78
2023/06/18 06:50:59;;;;;;;5.40;3.45;;;23.80;54.50;;;;;;4988575;28;20046;-78
2023/06/18 06:53:30;;;;;;;4.55;2.95;;;24.00;54.30;;;;;;4972916;28;20052;-78
2023/06/18 06:55:57;;;;;;;4.35;2.70;;;24.10;54.00;;;;;;4978167;28;20050;-79
2023/06/18 06:58:26;;;;;;;5.57;3.38;;;24.30;53.80;;;;;;4985488;28;20057;-78
2023/06/18 07:00:53;;;;;;;4.47;3.28;;;24.40;53.50;;;;;;4975535;28;20070;-78
2023/06/18 07:03:20;;;;;;;5.22;3.10;;;24.50;53.20;;;;;;5000201;28;20370;-78
2023/06/18 07:05:48;;;;;;;4.85;3.00;;;24.60;53.00;;;;;;4963464;28;20446;-78
2023/06/18 07:08:15;;;;;;;5.47;3.50;;;24.70;52.80;;;;;;4985296;28;20503;-79
2023/06/18 07:10:42;;;;;;;5.88;3.00;;;24.70;52.60;;;;;;4958026;28;20042;-78
2023/06/18 07:13:09;;;;;;;4.38;3.03;;;24.80;52.50;;;;;;4977974;28;20395;-79
2023/06/18 07:15:36;;;;;;;5.22;3.05;;;24.90;52.40;;;;;;4960691;28;20418;-79
2023/06/18 07:18:03;;;;;;;4.25;2.70;;;25.00;52.30;;;;;;4974776;28;20047;-79
2023/06/18 07:20:30;;;;;;;3.60;2.70;;;25.00;52.20;;;;;;4962494;28;20074;-79
2023/06/18 07:22:57;;;;;;;4.53;2.90;;;25.10;52.60;;;;;;4985620;28;20048;-79
2023/06/18 07:25:24;;;;;;;3.85;2.63;;;25.30;51.80;;;;;;4980259;28;20069;-79
2023/06/18 07:27:51;;;;;;;3.85;2.58;;;25.50;51.40;;;;;;4943801;28;20046;-78
2023/06/18 07:30:19;;;;;;;4.13;2.42;;;25.60;51.10;;;;;;4999029;28;20517;-79
2023/06/18 07:32:46;;;;;;;4.40;2.40;;;25.80;50.80;;;;;;4968957;28;20494;-79
2023/06/18 07:35:13;;;;;;;3.95;2.50;;;25.80;50.70;;;;;;4971892;28;20031;-79
2023/06/18 07:37:40;;;;;;;4.43;2.58;;;25.90;50.60;;;;;;4997635;28;20046;-79
2023/06/18 07:40:08;;;;;;;3.35;2.20;;;26.00;50.60;;;;;;4976970;28;20069;-79
2023/06/18 07:42:35;;;;;;;2.78;1.65;;;26.00;50.40;;;;;;4975374;28;20076;-78
2023/06/18 07:45:03;;;;;;;4.70;2.30;;;26.10;50.30;;;;;;4987118;28;20060;-78
2023/06/18 07:47:30;;;;;;;3.55;2.30;;;26.10;50.10;;;;;;4975965;28;20042;-78
2023/06/18 07:49:59;;;;;;;4.07;2.13;;;26.10;50.00;;;;;;4999008;28;20042;-81
2023/06/18 07:52:26;;;;;;;3.63;2.17;;;26.10;49.70;;;;;;4969281;28;20161;-78
2023/06/18 07:54:53;;;;;;;3.72;2.28;;;26.20;49.50;;;;;;4984088;28;20062;-78
2023/06/18 07:57:20;;;;;;;4.35;2.50;;;26.20;49.10;;;;;;4979517;28;20051;-77
2023/06/18 07:59:47;;;;;;;4.28;3.20;;;26.20;48.90;;;;;;4967089;28;20049;-77
2023/06/18 08:02:14;;;;;;;4.70;3.28;;;26.30;48.50;;;;;;4985030;28;20061;-78
2023/06/18 08:04:41;;;;;;;5.32;3.30;;;26.30;48.40;;;;;;4985159;28;20056;-78
2023/06/18 08:07:09;;;;;;;4.45;2.72;;;26.20;48.30;;;;;;4992058;28;20038;-78
2023/06/18 08:09:36;;;;;;;4.15;2.92;;;26.20;48.40;;;;;;5003699;28;20042;-78
2023/06/18 08:12:03;;;;;;;4.47;2.50;;;26.10;48.40;;;;;;4987436;28;20046;-78
2023/06/18 08:14:30;;;;;;;4.82;3.00;;;26.00;48.50;;;;;;4981611;28;20042;-79
2023/06/18 08:17:00;;;;;;;3.90;2.80;;;26.00;48.70;;;;;;4978792;28;20058;-79
2023/06/18 08:19:27;;;;;;;4.28;2.97;;;25.90;48.80;;;;;;5003739;28;20053;-79
2023/06/18 08:21:54;;;;;;;4.97;2.50;;;25.90;48.90;;;;;;4954881;28;20077;-79
2023/06/18 08:24:21;;;;;;;5.00;3.25;;;25.90;48.90;;;;;;4972192;28;20046;-80
2023/06/18 08:26:49;;;;;;;3.53;2.20;;;25.90;48.80;;;;;;4971682;28;20448;-79
2023/06/18 08:29:16;;;;;;;3.38;2.47;;;26.00;48.70;;;;;;4986900;28;20048;-79
2023/06/18 08:31:43;;;;;;;3.88;2.13;;;26.10;48.50;;;;;;4970203;28;20467;-78
2023/06/18 08:34:10;;;;;;;3.20;2.38;;;26.20;48.40;;;;;;4985051;28;20046;-79
2023/06/18 08:36:37;;;;;;;3.40;1.95;;;26.30;48.30;;;;;;4977250;28;20062;-79
2023/06/18 08:39:04;;;;;;;3.60;2.00;;;26.40;48.30;;;;;;4962184;28;20076;-79
2023/06/18 08:41:32;;;;;;;2.97;1.98;;;26.50;48.10;;;;;;5004190;28;20038;-77
2023/06/18 08:44:00;;;;;;;3.00;2.17;;;26.60;48.70;;;;;;4973451;28;20042;-78
2023/06/18 08:46:30;;;;;;;2.90;1.85;;;26.80;48.00;;;;;;4994004;28;20057;-78
2023/06/18 08:49:00;;;;;;;2.80;1.80;;;26.90;47.80;;;;;;4977199;28;20050;-79
2023/06/18 08:51:27;;;;;;;3.50;2.40;;;27.00;47.70;;;;;;4974441;28;20050;-80
2023/06/18 08:54:13;;;;;;;2.72;2.10;;;27.10;47.50;;;;;;4978636;28;20491;-78
2023/06/18 08:56:54;;;;;;;3.15;2.00;;;27.30;47.30;;;;;;5002495;28;20072;-78
2023/06/18 08:59:22;;;;;;;3.92;2.10;;;27.30;47.20;;;;;;5001457;28;20046;-78
2023/06/18 09:01:52;;;;;;;4.78;2.42;;;27.30;47.20;;;;;;4962104;28;20042;-84
2023/06/18 09:04:21;;;;;;;3.33;2.05;;;27.30;46.80;;;;;;4977474;28;20062;-84
2023/06/18 09:06:49;;;;;;;2.65;1.73;;;27.40;46.50;;;;;;4952855;28;20152;-85
2023/06/18 09:09:19;;;;;;;3.00;1.90;;;27.50;46.50;;;;;;4987722;28;20065;-84
2023/06/18 09:11:46;;;;;;;4.50;2.45;;;27.80;46.20;;;;;;4986770;28;20043;-84
2023/06/18 09:14:20;;;;;;;4.10;2.45;;;27.90;45.80;;;;;;4983126;28;20042;-83
2023/06/18 09:16:47;;;;;;;3.58;2.40;;;28.00;45.30;;;;;;4986388;28;20043;-86
2023/06/18 09:19:16;;;;;;;3.30;2.20;;;28.00;45.10;;;;;;4976487;28;20047;-86
2023/06/18 09:21:43;;;;;;;4.47;2.83;;;28.10;45.00;;;;;;4994098;28;20054;-86
2023/06/18 09:24:21;;;;;;;3.75;2.53;;;28.20;44.60;;;;;;5012525;28;20569;-86
2023/06/18 09:27:00;;;;;;;3.33;2.30;;;28.30;44.20;;;;;;4979857;28;20053;-86
2023/06/18 09:29:29;;;;;;;3.03;2.25;;;28.30;44.20;;;;;;4987404;28;20387;-86
2023/06/18 09:31:56;;;;;;;3.80;2.65;;;28.40;44.10;;;;;;4980969;28;20069;-86
2023/06/18 09:34:23;;;;;;;3.55;2.13;;;28.50;43.80;;;;;;5000717;28;20080;-85
2023/06/18 09:36:50;;;;;;;4.10;2.25;;;28.80;43.70;;;;;;4979819;28;20042;-84
2023/06/18 09:39:22;;;;;;;3.28;2.25;;;29.00;43.50;;;;;;4993507;28;20046;-84
2023/06/18 09:41:55;;;;;;;2.92;2.03;;;29.10;43.30;;;;;;4980214;28;20131;-86
2023/06/18 09:44:23;;;;;;;3.13;2.20;;;29.20;43.40;;;;;;4984872;28;20129;-87
2023/06/18 09:47:00;;;;;;;2.30;1.63;;;29.30;43.40;;;;;;4996187;28;20046;-84
2023/06/18 09:49:30;;;;;;;2.95;1.67;;;29.40;43.30;;;;;;4989534;28;20081;-86
2023/06/18 09:51:57;;;;;;;2.53;1.73;;;29.40;43.10;;;;;;5002787;28;20038;-85
2023/06/18 09:54:41;;;;;;;2.85;2.10;;;29.40;43.00;;;;;;4986925;28;20042;-86
2023/06/18 09:57:11;;;;;;;3.78;2.42;;;29.50;42.60;;;;;;4998618;28;20950;-86
2023/06/18 09:59:38;;;;;;;3.75;2.10;;;29.40;42.00;;;;;;4970835;28;20511;-85
2023/06/18 10:02:07;;;;;;;2.88;1.90;;;29.40;42.00;;;;;;4969419;28;20129;-84
2023/06/18 10:04:34;;;;;;;5.18;1.90;;;29.40;41.80;;;;;;4996736;28;20403;-87
2023/06/18 10:07:13;;;;;;;4.15;2.30;;;29.40;41.50;;;;;;4982002;28;20514;-85
2023/06/18 10:09:45;;;;;;;3.55;2.38;;;29.40;41.30;;;;;;4986929;28;20402;-87
2023/06/18 10:12:13;;;;;;;;;;;29.40;41.30;;;;;;4987272;28;20376;-87
2023/06/18 10:14:41;;;;;;;3.38;2.33;;;29.40;41.30;;;;;;4978992;28;19925;-86
2023/06/18 10:17:12;;;;;;;2.83;2.13;;;29.40;41.00;;;;;;4982604;28;20053;-87
2023/06/18 10:19:47;;;;;;;2.63;1.58;;;29.40;41.10;;;;;;4988048;28;20049;-87
2023/06/18 10:22:16;;;;;;;4.63;2.38;;;29.50;41.10;;;;;;4979553;28;20491;-87
2023/06/18 10:24:57;;;;;;;2.40;1.70;;;29.50;41.00;;;;;;4970483;28;20051;-87
2023/06/18 10:27:25;;;;;;;2.40;1.50;;;29.50;41.00;;;;;;4989580;28;20051;-87
2023/06/18 10:29:52;;;;;;;2.70;1.80;;;29.60;41.10;;;;;;4975847;28;20057;-84
2023/06/18 10:32:20;;;;;;;2.05;1.13;;;29.60;40.70;;;;;;4986376;28;20043;-84
2023/06/18 10:34:47;;;;;;;1.90;1.20;;;29.60;40.80;;;;;;4985075;28;20128;-85
2023/06/18 10:37:18;;;;;;;2.38;1.70;;;29.60;40.80;;;;;;4972789;28;20455;-87
2023/06/18 10:39:48;;;;;;;2.95;1.73;;;29.60;40.70;;;;;;4964967;28;20047;-88
2023/06/18 10:42:16;;;;;;;2.53;1.90;;;29.60;40.80;;;;;;4991849;28;20462;-87
2023/06/18 10:45:02;;;;;;;2.90;1.60;;;29.50;40.70;;;;;;4965863;28;20100;-88
2023/06/18 10:47:30;;;;;;;2.50;1.48;;;29.50;40.80;;;;;;4979857;28;20041;-86
2023/06/18 10:50:03;;;;;;;1.80;1.20;;;29.40;41.00;;;;;;4984981;28;20042;-85
2023/06/18 10:52:49;;;;;;;1.85;1.23;;;29.40;41.20;;;;;;4977705;28;20064;-83
2023/06/18 10:55:24;;;;;;;2.00;1.20;;;29.30;41.40;;;;;;4972448;28;20518;-83
2023/06/18 10:58:01;;;;;;;2.00;1.00;;;29.30;41.50;;;;;;4995488;28;20556;-84
2023/06/18 11:00:33;;;;;;;2.67;1.73;;;29.20;41.60;;;;;;5002823;28;20483;-83
2023/06/18 11:03:02;;;;;;;2.80;1.95;;;29.10;41.40;;;;;;4976147;28;20076;-88
2023/06/18 11:05:33;;;;;;;3.33;2.50;;;28.90;41.40;;;;;;4979945;28;20059;-87
2023/06/18 11:08:08;;;;;;;2.50;1.70;;;28.80;41.30;;;;;;4990626;28;20046;-84
2023/06/18 11:10:45;;;;;;;2.78;1.63;;;28.70;41.50;;;;;;4972657;28;20144;-84
2023/06/18 11:13:13;;;;;;;2.10;1.20;;;28.70;41.60;;;;;;4969875;28;20130;-86
2023/06/18 11:15:53;;;;;;;3.95;1.50;;;28.60;41.80;;;;;;4964701;28;20130;-87
2023/06/18 11:18:22;;;;;;;2.17;1.37;;;28.70;41.80;;;;;;4978895;28;20038;-87
2023/06/18 11:20:49;;;;;;;4.63;2.08;;;28.50;41.80;;;;;;4991743;28;20334;-88
2023/06/18 11:23:21;;;;;;;3.23;1.83;;;28.50;42.00;;;;;;4945490;28;20116;-87
2023/06/18 11:25:49;;;;;;;3.47;1.70;;;28.40;42.20;;;;;;4972750;28;20046;-83
2023/06/18 11:28:17;;;;;;;3.92;2.70;;;28.40;42.10;;;;;;4978156;28;20054;-86
2023/06/18 11:30:51;;;;;;;3.65;2.33;;;28.30;42.00;;;;;;4972279;28;20046;-85
2023/06/18 11:33:24;;;;;;;3.78;2.03;;;28.10;42.10;;;;;;4989714;28;20054;-86
2023/06/18 11:35:53;;;;;;;2.67;1.88;;;28.10;42.30;;;;;;5000973;28;20153;-85
2023/06/18 11:38:21;;;;;;;3.22;2.05;;;28.00;42.40;;;;;;4991142;28;20054;-85
2023/06/18 11:40:49;;;;;;;2.78;1.80;;;27.90;42.40;;;;;;4957244;28;20043;-83
2023/06/18 11:43:20;;;;;;;2.92;2.13;;;27.90;42.60;;;;;;4984913;28;20494;-83
2023/06/18 11:45:49;;;;;;;2.92;2.08;;;27.80;42.50;;;;;;4960192;28;20507;-82
2023/06/18 11:48:22;;;;;;;3.78;2.50;;;27.70;42.40;;;;;;4963160;28;20490;-82
2023/06/18 11:50:56;;;;;;;3.75;2.25;;;27.60;42.30;;;;;;4981119;28;20047;-85
2023/06/18 11:53:23;;;;;;;2.65;1.88;;;27.60;42.50;;;;;;4994315;28;20046;-85
2023/06/18 11:55:53;;;;;;;3.40;1.83;;;27.60;42.60;;;;;;4985147;28;20044;-85
2023/06/18 11:58:21;;;;;;;2.53;1.80;;;27.60;42.90;;;;;;4953548;28;20050;-85
2023/06/18 12:00:48;;;;;;;2.75;1.70;;;27.60;43.10;;;;;;4989287;28;20487;-83
2023/06/18 12:03:15;;;;;;;2.85;1.85;;;27.60;43.10;;;;;;4997092;28;20467;-83
2023/06/18 12:05:44;;;;;;;2.85;1.67;;;27.60;43.20;;;;;;4987969;28;20046;-82
2023/06/18 12:08:13;;;;;;;2.78;1.83;;;27.60;43.30;;;;;;4993750;28;20045;-83
2023/06/18 12:10:43;;;;;;;3.20;1.65;;;27.70;43.50;;;;;;4982084;28;20042;-82
2023/06/18 12:13:37;;;;;;;3.45;2.00;;;27.70;43.50;;;;;;4984687;28;20137;-83
2023/06/18 12:16:13;;;;;;;3.72;2.20;;;27.80;43.50;;;;;;4998385;28;20379;-82
2023/06/18 12:18:43;;;;;;;3.13;1.95;;;27.80;43.50;;;;;;4990075;28;20145;-83
2023/06/18 12:21:10;;;;;;;3.25;1.63;;;27.90;43.50;;;;;;4998768;28;20047;-83
2023/06/18 12:23:38;;;;;;;2.28;1.60;;;28.00;43.40;;;;;;4987118;28;20740;-84
2023/06/18 12:26:05;;;;;;;3.33;2.17;;;28.10;43.30;;;;;;4988534;28;20141;-85
2023/06/18 12:28:34;;;;;;;3.20;2.17;;;28.20;43.30;;;;;;4994070;28;20142;-85
2023/06/18 12:31:09;;;;;;;2.95;2.03;;;28.20;43.20;;;;;;4981367;28;20042;-84
2023/06/18 12:33:44;;;;;;;3.70;1.83;;;28.20;43.30;;;;;;5009825;28;20151;-86
2023/06/18 12:36:11;;;;;;;3.58;1.63;;;28.10;43.50;;;;;;4998331;28;20054;-84
2023/06/18 12:38:43;;;;;;;2.55;2.03;;;28.00;43.50;;;;;;4969042;28;20047;-84
2023/06/18 12:41:23;;;;;;;2.47;1.75;;;28.00;43.60;;;;;;4996949;28;20057;-84
2023/06/18 12:43:52;;;;;;;4.18;2.25;;;28.00;43.80;;;;;;4965870;28;20050;-84
2023/06/18 12:46:26;;;;;;;4.55;2.90;;;28.00;43.90;;;;;;4969537;28;20046;-83
2023/06/18 12:48:57;;;;;;;6.57;4.05;;;28.00;43.90;;;;;;4992259;28;20050;-84
2023/06/18 12:51:44;;;;;;;6.78;4.25;;;28.00;44.00;;;;;;4981261;28;20144;-82
2023/06/18 12:54:18;;;;;;;9.80;4.50;;;28.00;43.90;;;;;;4996270;28;20538;-83
2023/06/18 12:56:50;;;;;;;7.47;3.80;;;28.00;43.90;;;;;;4971703;28;20043;-84
2023/06/18 12:59:22;;;;;;;;;;;28.00;43.80;;;;;;4965566;28;20046;-85